Time;durP1;ratioP1;P1;durP2;ratioP2;P2;SDS_P1;SDS_P2;PMS_P1;PMS_P2;Temp;Humidity;BMP_temperature;BMP_pressure;BME280_temperature;BME280_humidity;BME280_pressure;Samples;Min_cycle;Max_cycle;Signal;HPM_P1;HPM_P2
2021/01/08 00:02:03;;;;;;;14.13;9.07;;;2.80;99.90;;;;;;5114229;28;20208;-82
2021/01/08 00:04:29;;;;;;;12.77;8.23;;;2.70;99.90;;;;;;5113896;28;20213;-82
2021/01/08 00:06:56;;;;;;;13.53;8.47;;;2.80;99.90;;;;;;5113773;28;20193;-81
2021/01/08 00:09:22;;;;;;;10.03;7.73;;;2.80;99.90;;;;;;5105647;28;20747;-81
2021/01/08 00:11:54;;;;;;;11.63;8.23;;;2.70;99.90;;;;;;5108020;28;20250;-82
2021/01/08 00:14:20;;;;;;;11.90;7.80;;;2.70;99.90;;;;;;5093976;28;20198;-81
2021/01/08 00:16:47;;;;;;;12.97;7.63;;;2.70;99.90;;;;;;5093631;28;20349;-81
2021/01/08 00:19:14;;;;;;;15.07;8.57;;;2.80;99.90;;;;;;5093462;28;20638;-79
2021/01/08 00:21:43;;;;;;;11.20;8.30;;;2.80;99.90;;;;;;5093480;28;20202;-80
2021/01/08 00:24:10;;;;;;;11.30;7.47;;;2.90;99.90;;;;;;5107472;28;20204;-80
2021/01/08 00:26:36;;;;;;;15.23;8.40;;;2.80;99.90;;;;;;5103724;28;20254;-80
2021/01/08 00:29:03;;;;;;;11.17;7.70;;;2.80;99.90;;;;;;5111578;28;20206;-80
2021/01/08 00:31:35;;;;;;;11.20;8.00;;;2.80;99.90;;;;;;5093572;28;20198;-79
2021/01/08 00:34:02;;;;;;;13.03;8.43;;;2.80;99.90;;;;;;5104941;28;20201;-80
2021/01/08 00:36:29;;;;;;;11.57;8.13;;;2.80;99.90;;;;;;5110389;28;20272;-79
2021/01/08 00:38:55;;;;;;;11.93;8.20;;;2.90;99.90;;;;;;5093374;28;20209;-80
2021/01/08 00:41:28;;;;;;;12.20;7.93;;;2.80;99.90;;;;;;5092984;28;20217;-80
2021/01/08 00:43:54;;;;;;;15.40;7.80;;;2.80;99.90;;;;;;5093225;28;20198;-80
2021/01/08 00:46:21;;;;;;;13.77;8.60;;;2.80;99.90;;;;;;5092756;28;20262;-80
2021/01/08 00:48:47;;;;;;;16.00;7.40;;;2.80;99.90;;;;;;5102433;28;20197;-80
2021/01/08 00:51:14;;;;;;;12.27;8.43;;;2.80;99.90;;;;;;5107332;28;20198;-80
2021/01/08 00:53:41;;;;;;;11.77;7.27;;;2.90;99.90;;;;;;5100346;28;20571;-81
2021/01/08 00:56:17;;;;;;;10.70;7.30;;;2.80;99.90;;;;;;5099960;28;20699;-80
2021/01/08 00:58:43;;;;;;;14.57;8.27;;;2.90;99.90;;;;;;5104053;28;20204;-81
2021/01/08 01:01:09;;;;;;;12.03;7.37;;;2.90;99.90;;;;;;5109852;28;20210;-81
2021/01/08 01:03:36;;;;;;;12.00;7.17;;;3.00;99.90;;;;;;5113897;28;20211;-80
2021/01/08 01:06:02;;;;;;;13.50;8.23;;;2.90;99.90;;;;;;5099992;28;20293;-80
2021/01/08 01:08:28;;;;;;;11.13;6.97;;;2.80;99.90;;;;;;5114618;28;20208;-81
2021/01/08 01:10:56;;;;;;;11.43;7.60;;;2.90;99.90;;;;;;5120153;28;20288;-84
2021/01/08 01:13:22;;;;;;;15.47;9.33;;;2.80;99.90;;;;;;5106846;28;20208;-80
2021/01/08 01:15:49;;;;;;;13.10;7.83;;;2.80;99.90;;;;;;5113999;28;20222;-80
2021/01/08 01:18:15;;;;;;;12.90;7.60;;;2.80;99.90;;;;;;5099502;28;20202;-80
2021/01/08 01:20:42;;;;;;;10.23;7.57;;;2.80;99.90;;;;;;5114052;28;20515;-80
2021/01/08 01:23:08;;;;;;;13.80;8.10;;;2.80;99.90;;;;;;5109205;28;20197;-80
2021/01/08 01:25:35;;;;;;;11.13;8.67;;;2.80;99.90;;;;;;5118331;28;20212;-80
2021/01/08 01:28:02;;;;;;;11.43;7.13;;;2.80;99.90;;;;;;5099582;28;20569;-82
2021/01/08 01:30:29;;;;;;;13.07;6.87;;;2.80;99.90;;;;;;5098934;28;20202;-82
2021/01/08 01:32:55;;;;;;;11.00;7.27;;;3.00;99.90;;;;;;5099667;28;20194;-82
2021/01/08 01:35:21;;;;;;;10.77;7.60;;;2.80;99.90;;;;;;5107557;28;20557;-81
2021/01/08 01:37:48;;;;;;;11.97;7.33;;;2.90;99.90;;;;;;5105496;28;21030;-82
2021/01/08 01:40:14;;;;;;;11.07;7.63;;;2.80;99.90;;;;;;5113669;28;20297;-81
2021/01/08 01:42:41;;;;;;;10.37;7.30;;;2.70;99.90;;;;;;5111888;28;20202;-82
2021/01/08 01:45:09;;;;;;;11.57;7.83;;;2.70;99.90;;;;;;5115375;28;20629;-81
2021/01/08 01:47:35;;;;;;;11.93;7.57;;;2.80;99.90;;;;;;5110465;28;20202;-81
2021/01/08 01:50:03;;;;;;;12.13;7.80;;;2.90;99.90;;;;;;5116773;28;20551;-84
2021/01/08 01:52:29;;;;;;;17.47;7.87;;;2.80;99.90;;;;;;5099160;28;20206;-83
2021/01/08 01:54:57;;;;;;;11.97;7.93;;;2.80;99.90;;;;;;5099395;28;20289;-83
2021/01/08 01:57:23;;;;;;;10.30;8.23;;;2.80;99.90;;;;;;5099394;28;20675;-82
2021/01/08 01:59:50;;;;;;;11.73;8.53;;;2.70;99.90;;;;;;5098095;28;20212;-82
2021/01/08 02:02:22;;;;;;;13.80;8.77;;;2.70;99.90;;;;;;5109870;28;20657;-82
2021/01/08 02:04:49;;;;;;;11.73;8.67;;;3.10;99.90;;;;;;5096420;28;20202;-82
2021/01/08 02:07:16;;;;;;;11.57;8.50;;;2.70;99.90;;;;;;5095929;28;20289;-83
2021/01/08 02:09:42;;;;;;;11.23;8.27;;;2.60;99.90;;;;;;5095982;28;20259;-82
2021/01/08 02:12:09;;;;;;;13.07;8.60;;;2.70;99.90;;;;;;5096450;28;20554;-81
2021/01/08 02:14:37;;;;;;;12.87;8.90;;;2.60;99.90;;;;;;5104853;28;20676;-82
2021/01/08 02:17:03;;;;;;;13.60;8.63;;;2.60;99.90;;;;;;5115014;28;20240;-82
2021/01/08 02:19:37;;;;;;;12.83;9.00;;;2.70;99.90;;;;;;5095854;28;20208;-81
2021/01/08 02:22:09;;;;;;;12.73;8.70;;;2.50;99.90;;;;;;5095864;28;20201;-81
2021/01/08 02:24:41;;;;;;;13.73;8.53;;;2.70;99.90;;;;;;5103042;28;20207;-81
2021/01/08 02:27:08;;;;;;;15.47;8.57;;;2.60;99.90;;;;;;5115625;28;20666;-82
2021/01/08 02:29:35;;;;;;;11.23;8.70;;;2.60;99.90;;;;;;5102033;28;20201;-81
2021/01/08 02:32:02;;;;;;;11.23;8.57;;;2.60;99.90;;;;;;5115925;28;20205;-82
2021/01/08 02:34:31;;;;;;;13.67;8.67;;;2.60;99.90;;;;;;5111778;28;20645;-82
2021/01/08 02:36:59;;;;;;;12.77;8.87;;;2.60;99.90;;;;;;5115803;28;20251;-82
2021/01/08 02:39:25;;;;;;;13.50;8.53;;;2.70;99.90;;;;;;5116014;28;20205;-81
2021/01/08 02:41:54;;;;;;;15.60;8.70;;;2.60;99.90;;;;;;5100991;28;20690;-81
2021/01/08 02:44:23;;;;;;;10.47;7.60;;;2.70;99.90;;;;;;5115571;28;20224;-81
2021/01/08 02:46:49;;;;;;;12.63;8.17;;;2.70;99.90;;;;;;5111064;28;20213;-81
2021/01/08 02:49:16;;;;;;;13.83;8.30;;;2.70;99.90;;;;;;5095099;28;20202;-82
2021/01/08 02:51:42;;;;;;;11.97;8.03;;;2.70;99.90;;;;;;5094765;28;20292;-82
2021/01/08 02:54:10;;;;;;;13.27;7.53;;;2.70;99.90;;;;;;5101749;28;20202;-82
2021/01/08 02:56:42;;;;;;;11.63;7.63;;;2.70;99.90;;;;;;5106114;28;20243;-82
2021/01/08 02:59:10;;;;;;;12.73;8.37;;;2.70;99.90;;;;;;5115030;28;20721;-82
2021/01/08 03:01:38;;;;;;;13.00;8.47;;;2.70;99.90;;;;;;5114719;28;20662;-81
2021/01/08 03:04:05;;;;;;;14.37;8.17;;;2.60;99.90;;;;;;5111414;28;20203;-82
2021/01/08 03:06:32;;;;;;;11.47;8.80;;;2.70;99.90;;;;;;5103734;28;20713;-82
2021/01/08 03:09:00;;;;;;;16.87;8.97;;;2.70;99.90;;;;;;5114899;28;20198;-82
2021/01/08 03:11:27;;;;;;;13.63;9.03;;;2.60;99.90;;;;;;5114510;28;20664;-81
2021/01/08 03:13:54;;;;;;;14.03;8.63;;;2.70;99.90;;;;;;5114688;28;20698;-83
2021/01/08 03:16:21;;;;;;;11.20;8.90;;;2.60;99.90;;;;;;5108554;28;20316;-83
2021/01/08 03:18:48;;;;;;;12.23;8.43;;;2.60;99.90;;;;;;5094283;28;20202;-83
2021/01/08 03:21:15;;;;;;;14.40;8.63;;;2.60;99.90;;;;;;5112690;28;20667;-83
2021/01/08 03:23:41;;;;;;;14.73;8.60;;;2.50;99.90;;;;;;5114352;28;20197;-83
2021/01/08 03:26:08;;;;;;;15.13;8.90;;;2.60;99.90;;;;;;5114502;28;20718;-83
2021/01/08 03:28:34;;;;;;;16.60;9.53;;;2.50;99.90;;;;;;5113949;28;20284;-82
2021/01/08 03:31:00;;;;;;;14.20;9.13;;;2.60;99.90;;;;;;5114414;28;20300;-83
2021/01/08 03:33:27;;;;;;;13.30;8.83;;;2.50;99.90;;;;;;5101126;28;20201;-83
2021/01/08 03:35:55;;;;;;;13.17;9.47;;;2.50;99.90;;;;;;5101820;28;20347;-83
2021/01/08 03:38:21;;;;;;;14.43;8.97;;;2.50;99.90;;;;;;5094403;28;20285;-81
2021/01/08 03:40:47;;;;;;;17.37;9.87;;;2.50;99.90;;;;;;5104965;28;20208;-83
2021/01/08 03:43:14;;;;;;;16.40;9.67;;;2.40;99.90;;;;;;5119227;28;20201;-84
2021/01/08 03:45:40;;;;;;;15.87;10.30;;;2.40;99.90;;;;;;5113984;28;20257;-84
2021/01/08 03:48:07;;;;;;;15.77;10.37;;;2.50;99.90;;;;;;5100074;28;20206;-83
2021/01/08 03:50:33;;;;;;;15.00;9.53;;;2.50;99.90;;;;;;5114695;28;20221;-81
2021/01/08 03:53:00;;;;;;;18.13;10.13;;;2.50;99.90;;;;;;5114424;28;20201;-82
2021/01/08 03:55:27;;;;;;;18.50;11.37;;;2.50;99.90;;;;;;5114475;28;20613;-81
2021/01/08 03:57:53;;;;;;;14.57;10.40;;;2.60;99.90;;;;;;5114386;28;20224;-82
2021/01/08 04:00:20;;;;;;;14.83;9.83;;;2.50;99.90;;;;;;5096037;28;20198;-82
2021/01/08 04:02:46;;;;;;;15.47;10.63;;;2.60;99.90;;;;;;5094601;28;20218;-82
2021/01/08 04:05:13;;;;;;;16.13;10.53;;;2.60;99.90;;;;;;5108699;28;20296;-82
2021/01/08 04:07:39;;;;;;;14.50;9.87;;;2.40;99.90;;;;;;5113709;28;20205;-82
2021/01/08 04:10:08;;;;;;;14.30;11.00;;;2.60;99.90;;;;;;5113821;28;20686;-83
2021/01/08 04:12:35;;;;;;;16.40;10.97;;;2.60;99.90;;;;;;5113627;28;20209;-83
2021/01/08 04:15:01;;;;;;;18.47;12.03;;;2.60;99.90;;;;;;5113641;28;20197;-83
2021/01/08 04:17:28;;;;;;;21.57;11.93;;;2.50;99.90;;;;;;5095890;28;20210;-82
2021/01/08 04:19:54;;;;;;;18.83;12.27;;;2.50;99.90;;;;;;5093819;28;20202;-82
2021/01/08 04:22:20;;;;;;;16.77;11.60;;;2.50;99.90;;;;;;5095434;28;20206;-81
2021/01/08 04:24:47;;;;;;;20.27;13.20;;;2.50;99.90;;;;;;5113311;28;20229;-83
2021/01/08 04:27:15;;;;;;;22.70;13.03;;;2.50;99.90;;;;;;5099784;28;20262;-84
2021/01/08 04:29:41;;;;;;;21.30;13.97;;;2.40;99.90;;;;;;5093349;28;20206;-82
2021/01/08 04:32:07;;;;;;;22.03;13.67;;;2.40;99.90;;;;;;5093604;28;20286;-83
2021/01/08 04:34:34;;;;;;;21.23;13.07;;;2.40;99.90;;;;;;5107405;28;20571;-83
2021/01/08 04:37:00;;;;;;;21.07;13.60;;;2.40;99.90;;;;;;5103780;28;20225;-83
2021/01/08 04:39:26;;;;;;;23.03;14.03;;;2.40;99.90;;;;;;5111372;28;20292;-83
2021/01/08 04:41:54;;;;;;;22.03;14.00;;;2.60;99.90;;;;;;5102131;28;20828;-83
2021/01/08 04:44:21;;;;;;;20.93;14.77;;;2.40;99.90;;;;;;5113679;28;20219;-83
2021/01/08 04:46:49;;;;;;;24.27;14.57;;;2.40;99.90;;;;;;5106939;28;20649;-83
2021/01/08 04:49:17;;;;;;;20.13;13.77;;;2.60;99.90;;;;;;5093637;28;20202;-83
2021/01/08 04:51:44;;;;;;;21.13;14.27;;;2.50;99.90;;;;;;5113360;28;20197;-82
2021/01/08 04:54:11;;;;;;;20.57;14.07;;;2.50;99.90;;;;;;5113289;28;20197;-83
2021/01/08 04:56:41;;;;;;;22.97;13.97;;;3.00;99.90;;;;;;5094911;28;20217;-83
2021/01/08 04:59:08;;;;;;;21.40;14.10;;;2.40;99.90;;;;;;5093432;28;20202;-83
2021/01/08 05:01:36;;;;;;;23.93;15.87;;;2.50;99.90;;;;;;5093461;28;20284;-83
2021/01/08 05:04:02;;;;;;;20.43;14.77;;;2.40;99.90;;;;;;5098097;28;20206;-83
2021/01/08 05:06:29;;;;;;;24.03;13.93;;;2.40;99.90;;;;;;5101892;28;20347;-82
2021/01/08 05:08:56;;;;;;;23.07;14.10;;;2.40;99.90;;;;;;5092954;28;20234;-83
2021/01/08 05:11:25;;;;;;;24.87;16.17;;;2.40;99.90;;;;;;5102674;28;20208;-83
2021/01/08 05:13:55;;;;;;;23.27;14.03;;;2.70;99.90;;;;;;5111164;28;20201;-83
2021/01/08 05:16:24;;;;;;;25.53;15.60;;;2.40;99.90;;;;;;5092894;28;20314;-82
2021/01/08 05:18:52;;;;;;;28.30;15.93;;;2.30;99.90;;;;;;5107420;28;20201;-83
2021/01/08 05:21:19;;;;;;;28.20;16.97;;;2.40;99.90;;;;;;5100199;28;20201;-82
2021/01/08 05:23:48;;;;;;;26.47;16.10;;;2.40;99.90;;;;;;5113131;28;20212;-83
2021/01/08 05:26:15;;;;;;;25.70;16.50;;;2.40;99.90;;;;;;5093359;28;20205;-83
2021/01/08 05:28:47;;;;;;;23.67;15.83;;;2.30;99.90;;;;;;5092930;28;20195;-83
2021/01/08 05:31:15;;;;;;;24.13;15.40;;;2.30;99.90;;;;;;5108369;28;20289;-83
2021/01/08 05:33:42;;;;;;;24.57;15.47;;;2.50;99.90;;;;;;5092774;28;20289;-83
2021/01/08 05:36:11;;;;;;;31.50;17.00;;;2.30;99.90;;;;;;5111870;28;20312;-83
2021/01/08 05:38:41;;;;;;;25.03;16.87;;;2.40;99.90;;;;;;5117101;28;20234;-82
2021/01/08 05:41:09;;;;;;;27.60;17.43;;;2.30;99.90;;;;;;5116666;28;20209;-84
2021/01/08 05:43:38;;;;;;;26.90;16.20;;;2.30;99.90;;;;;;5108376;28;20205;-83
2021/01/08 05:46:12;;;;;;;29.43;15.83;;;2.40;99.90;;;;;;5097586;28;20198;-84
2021/01/08 05:48:41;;;;;;;24.93;16.20;;;2.30;99.90;;;;;;5105236;28;20201;-84
2021/01/08 05:51:08;;;;;;;23.33;16.17;;;2.30;99.90;;;;;;5102397;28;20202;-83
2021/01/08 05:53:37;;;;;;;27.37;16.57;;;2.30;99.90;;;;;;5117004;28;20197;-84
2021/01/08 05:56:04;;;;;;;26.10;16.93;;;2.30;99.90;;;;;;5117876;28;20609;-83
2021/01/08 05:58:32;;;;;;;26.37;15.47;;;2.30;99.90;;;;;;5110805;28;20206;-83
2021/01/08 06:01:00;;;;;;;22.13;15.37;;;2.30;99.90;;;;;;5096265;28;20309;-83
2021/01/08 06:03:27;;;;;;;28.60;16.93;;;2.20;99.90;;;;;;5096007;28;20200;-83
2021/01/08 06:05:54;;;;;;;25.30;15.87;;;2.40;99.90;;;;;;5116380;28;20206;-83
2021/01/08 06:08:25;;;;;;;23.10;15.17;;;2.40;99.90;;;;;;5103344;28;20213;-83
2021/01/08 06:10:54;;;;;;;24.83;16.40;;;2.40;99.90;;;;;;5096334;28;20205;-83
2021/01/08 06:13:24;;;;;;;24.80;16.50;;;2.50;99.90;;;;;;5108939;28;20231;-82
2021/01/08 06:15:54;;;;;;;23.40;15.83;;;2.30;99.90;;;;;;5116875;28;20197;-83
2021/01/08 06:18:22;;;;;;;24.57;16.23;;;2.40;99.90;;;;;;5105151;28;20202;-83
2021/01/08 06:20:51;;;;;;;23.87;16.03;;;2.40;99.90;;;;;;5110048;28;20250;-83
2021/01/08 06:23:37;;;;;;;23.93;16.37;;;2.30;99.90;;;;;;5105816;28;20198;-83
2021/01/08 06:26:06;;;;;;;27.87;17.07;;;2.30;99.90;;;;;;5097525;28;20205;-81
2021/01/08 06:28:36;;;;;;;27.90;16.13;;;2.30;99.90;;;;;;5095459;28;20210;-82
2021/01/08 06:31:11;;;;;;;25.77;17.23;;;2.60;99.90;;;;;;5095600;28;20208;-82
2021/01/08 06:33:39;;;;;;;27.80;16.07;;;2.30;99.90;;;;;;5095651;28;20236;-84
2021/01/08 06:36:19;;;;;;;23.90;16.70;;;2.30;99.90;;;;;;5095340;28;20574;-83
2021/01/08 06:38:50;;;;;;;28.87;16.63;;;2.30;99.90;;;;;;5107086;28;20721;-84
2021/01/08 06:41:18;;;;;;;27.83;16.30;;;2.30;99.90;;;;;;5112035;28;20545;-84
2021/01/08 06:43:49;;;;;;;28.77;17.90;;;2.20;99.90;;;;;;5095716;28;20194;-85
2021/01/08 06:46:34;;;;;;;26.97;17.07;;;2.30;99.90;;;;;;5095467;28;20206;-86
2021/01/08 06:49:02;;;;;;;28.23;17.13;;;2.30;99.90;;;;;;5107032;28;20197;-85
2021/01/08 06:51:32;;;;;;;34.10;18.03;;;2.30;99.90;;;;;;5112107;28;20195;-84
2021/01/08 06:54:00;;;;;;;28.10;16.83;;;2.30;99.90;;;;;;5105356;28;20194;-84
2021/01/08 06:56:37;;;;;;;29.83;18.87;;;2.30;99.90;;;;;;5099246;28;20278;-83
2021/01/08 06:59:05;;;;;;;28.30;17.50;;;2.30;99.90;;;;;;5105125;28;20201;-84
2021/01/08 07:01:42;;;;;;;28.87;18.03;;;2.20;99.90;;;;;;5115120;28;20197;-82
2021/01/08 07:04:11;;;;;;;27.83;18.93;;;2.20;99.90;;;;;;5101043;28;20276;-83
2021/01/08 07:06:38;;;;;;;32.03;17.70;;;2.20;99.90;;;;;;5115552;28;20607;-83
2021/01/08 07:09:06;;;;;;;35.17;20.20;;;2.20;99.90;;;;;;5097219;28;20198;-83
2021/01/08 07:11:34;;;;;;;29.90;19.37;;;2.10;99.90;;;;;;5105972;28;20204;-83
2021/01/08 07:14:09;;;;;;;32.10;19.03;;;2.20;99.90;;;;;;5112090;28;20597;-84
2021/01/08 07:16:44;;;;;;;32.20;19.40;;;2.10;99.90;;;;;;5094575;28;20233;-82
2021/01/08 07:19:12;;;;;;;33.47;19.67;;;2.10;99.90;;;;;;5094305;28;20652;-83
2021/01/08 07:21:47;;;;;;;36.03;20.07;;;2.20;99.90;;;;;;5095020;28;20555;-82
2021/01/08 07:24:15;;;;;;;30.90;19.80;;;2.10;99.90;;;;;;5094372;28;20452;-82
2021/01/08 07:26:42;;;;;;;32.10;19.10;;;2.00;99.90;;;;;;5104280;28;20704;-82
2021/01/08 07:29:09;;;;;;;33.97;21.13;;;2.10;99.90;;;;;;5100424;28;20306;-82
2021/01/08 07:31:37;;;;;;;34.97;20.83;;;1.90;99.90;;;;;;5106972;28;20568;-80
2021/01/08 07:34:07;;;;;;;34.63;20.57;;;2.00;99.90;;;;;;5108739;28;20198;-83
2021/01/08 07:36:34;;;;;;;35.33;19.30;;;2.00;99.90;;;;;;5114426;28;20223;-83
2021/01/08 07:39:02;;;;;;;32.13;20.20;;;2.00;99.90;;;;;;5114534;28;20292;-83
2021/01/08 07:41:32;;;;;;;34.83;21.63;;;1.90;99.90;;;;;;5114171;28;20215;-83
2021/01/08 07:44:00;;;;;;;36.17;20.63;;;1.90;99.90;;;;;;5114354;28;20201;-83
2021/01/08 07:46:28;;;;;;;35.50;21.40;;;1.90;99.90;;;;;;5114153;28;20212;-82
2021/01/08 07:48:56;;;;;;;40.80;22.50;;;1.90;99.90;;;;;;5114446;28;20201;-82
2021/01/08 07:51:23;;;;;;;36.13;21.37;;;1.90;99.90;;;;;;5097192;28;20217;-84
2021/01/08 07:53:52;;;;;;;38.23;21.73;;;2.00;99.90;;;;;;5094221;28;20631;-82
2021/01/08 07:56:21;;;;;;;38.27;21.73;;;2.00;99.90;;;;;;5094039;28;20289;-84
2021/01/08 07:58:57;;;;;;;33.03;21.03;;;2.00;99.90;;;;;;5093810;28;20242;-82
2021/01/08 08:01:24;;;;;;;40.60;23.00;;;1.90;99.90;;;;;;5109365;28;20201;-83
2021/01/08 08:03:58;;;;;;;36.97;22.37;;;2.00;99.90;;;;;;5099947;28;20324;-83
2021/01/08 08:06:25;;;;;;;36.73;22.40;;;2.00;99.90;;;;;;5114396;28;20213;-82
2021/01/08 08:08:53;;;;;;;40.10;22.63;;;2.10;99.90;;;;;;5097105;28;20327;-80
2021/01/08 08:11:25;;;;;;;35.17;21.57;;;2.00;99.90;;;;;;5093622;28;20202;-85
2021/01/08 08:13:52;;;;;;;35.60;22.23;;;2.00;99.90;;;;;;5107919;28;20197;-77
2021/01/08 08:16:18;;;;;;;40.63;22.23;;;2.00;99.90;;;;;;5093473;28;20197;-80
2021/01/08 08:18:50;;;;;;;38.77;23.13;;;2.00;99.90;;;;;;5107748;28;20209;-83
2021/01/08 08:21:17;;;;;;;40.00;21.60;;;2.00;99.90;;;;;;5100217;28;20559;-80
2021/01/08 08:23:50;;;;;;;35.73;21.40;;;2.00;99.90;;;;;;5096092;28;20198;-83
2021/01/08 08:26:17;;;;;;;38.00;22.50;;;2.00;99.90;;;;;;5103674;28;20613;-83
2021/01/08 08:28:43;;;;;;;39.47;23.03;;;2.10;99.90;;;;;;5109842;28;20282;-83
2021/01/08 08:31:13;;;;;;;37.03;21.90;;;2.10;99.90;;;;;;5103103;28;20193;-83
2021/01/08 08:33:43;;;;;;;39.90;22.27;;;2.20;99.90;;;;;;5111831;28;20197;-81
2021/01/08 08:36:11;;;;;;;37.77;22.43;;;2.20;99.90;;;;;;5108721;28;20198;-82
2021/01/08 08:38:38;;;;;;;41.90;22.23;;;2.20;99.90;;;;;;5095662;28;20204;-81
2021/01/08 08:41:12;;;;;;;40.07;22.53;;;2.20;99.90;;;;;;5097271;28;20213;-81
2021/01/08 08:43:39;;;;;;;32.37;21.07;;;2.40;99.90;;;;;;5106227;28;20208;-81
2021/01/08 08:46:05;;;;;;;35.37;21.53;;;2.40;99.90;;;;;;5105494;28;20584;-81
2021/01/08 08:48:32;;;;;;;36.13;21.70;;;2.30;99.90;;;;;;5107527;28;20211;-82
2021/01/08 08:50:58;;;;;;;39.87;22.13;;;2.40;99.90;;;;;;5107876;28;20212;-81
2021/01/08 08:53:25;;;;;;;37.87;22.93;;;2.40;99.90;;;;;;5106697;28;20683;-81
2021/01/08 08:55:52;;;;;;;38.07;22.20;;;2.40;99.90;;;;;;5105917;28;20754;-81
2021/01/08 08:58:18;;;;;;;34.80;21.10;;;2.40;99.90;;;;;;5106281;28;20569;-81
2021/01/08 09:00:45;;;;;;;34.33;21.17;;;2.90;99.90;;;;;;5106279;28;20571;-81
2021/01/08 09:03:19;;;;;;;33.87;21.17;;;2.50;99.90;;;;;;5107418;28;20266;-81
2021/01/08 09:05:46;;;;;;;34.33;21.00;;;2.50;99.90;;;;;;5107232;28;20223;-82
2021/01/08 09:08:24;;;;;;;31.57;20.47;;;2.50;99.90;;;;;;5107816;28;20205;-82
2021/01/08 09:10:58;;;;;;;39.10;22.17;;;2.60;99.90;;;;;;5110231;28;20258;-82
2021/01/08 09:13:35;;;;;;;35.30;21.17;;;2.60;99.90;;;;;;5111631;28;20205;-82
2021/01/08 09:16:07;;;;;;;36.57;22.03;;;2.70;99.90;;;;;;5112229;28;20200;-82
2021/01/08 09:18:41;;;;;;;34.67;21.23;;;2.70;99.90;;;;;;5111997;28;21080;-82
2021/01/08 09:21:14;;;;;;;33.07;21.70;;;2.80;99.90;;;;;;5112865;28;20212;-82
2021/01/08 09:23:44;;;;;;;32.17;19.93;;;2.70;99.90;;;;;;5111854;28;20218;-82
2021/01/08 09:26:13;;;;;;;31.77;20.33;;;2.80;99.90;;;;;;5101239;28;20247;-82
2021/01/08 09:28:43;;;;;;;32.40;20.50;;;2.80;99.90;;;;;;5111145;28;20231;-82
2021/01/08 09:31:10;;;;;;;32.30;21.07;;;2.90;99.90;;;;;;5107051;28;20729;-83
2021/01/08 09:33:37;;;;;;;30.13;20.33;;;2.90;99.90;;;;;;5096392;28;20206;-82
2021/01/08 09:36:04;;;;;;;33.07;20.80;;;2.90;99.90;;;;;;5105805;28;20200;-82
2021/01/08 09:38:30;;;;;;;32.90;20.40;;;3.10;99.90;;;;;;5109594;28;20222;-83
2021/01/08 09:40:57;;;;;;;30.50;19.63;;;3.20;99.90;;;;;;5107314;28;20194;-82
2021/01/08 09:43:25;;;;;;;29.73;18.97;;;3.10;99.90;;;;;;5109887;28;20201;-83
2021/01/08 09:46:02;;;;;;;33.83;20.47;;;3.20;99.90;;;;;;5106722;28;20228;-83
2021/01/08 09:48:29;;;;;;;32.30;19.67;;;3.10;99.90;;;;;;5103093;28;20201;-82
2021/01/08 09:51:04;;;;;;;33.00;20.97;;;3.20;99.90;;;;;;5098302;28;20210;-83
2021/01/08 09:53:30;;;;;;;30.73;20.17;;;3.30;99.90;;;;;;5095985;28;20197;-83
2021/01/08 09:56:16;;;;;;;30.83;19.47;;;3.40;99.90;;;;;;5101909;28;20680;-81
2021/01/08 09:58:43;;;;;;;29.60;17.90;;;3.50;99.90;;;;;;5099701;28;20212;-81
2021/01/08 10:01:12;;;;;;;32.10;18.93;;;4.10;99.90;;;;;;5099706;28;20212;-82
2021/01/08 10:03:40;;;;;;;29.73;18.47;;;3.60;99.90;;;;;;5101640;28;20293;-81
2021/01/08 10:06:09;;;;;;;28.03;18.60;;;3.70;99.90;;;;;;5108370;28;20568;-82
2021/01/08 10:08:36;;;;;;;25.43;17.07;;;3.70;99.90;;;;;;5095863;28;20251;-81
2021/01/08 10:11:03;;;;;;;32.83;20.10;;;3.80;99.90;;;;;;5102737;28;20194;-82
2021/01/08 10:13:30;;;;;;;27.90;19.23;;;3.90;99.90;;;;;;5116538;28;20754;-81
2021/01/08 10:16:05;;;;;;;31.17;18.67;;;3.80;99.90;;;;;;5101646;28;20224;-82
2021/01/08 10:18:33;;;;;;;32.83;18.93;;;3.90;99.90;;;;;;5116536;28;20595;-82
2021/01/08 10:21:04;;;;;;;28.27;18.47;;;3.90;99.90;;;;;;5111282;28;20205;-81
2021/01/08 10:23:37;;;;;;;30.40;18.73;;;3.90;99.90;;;;;;5100662;28;20660;-81
2021/01/08 10:26:10;;;;;;;28.23;18.50;;;4.00;99.90;;;;;;5110583;28;20193;-81
2021/01/08 10:28:47;;;;;;;28.93;17.23;;;4.20;99.90;;;;;;5109535;28;20205;-80
2021/01/08 10:31:16;;;;;;;29.40;18.03;;;4.40;99.90;;;;;;5111288;28;20204;-82
2021/01/08 10:33:43;;;;;;;29.60;17.43;;;4.40;99.90;;;;;;5110810;28;20209;-80
2021/01/08 10:36:10;;;;;;;24.83;16.23;;;4.40;99.90;;;;;;5112300;28;20193;-81
2021/01/08 10:38:36;;;;;;;24.43;16.77;;;4.40;99.90;;;;;;5110909;28;20266;-81
2021/01/08 10:41:03;;;;;;;25.70;16.17;;;4.50;99.90;;;;;;5114170;28;20750;-81
2021/01/08 10:43:31;;;;;;;26.30;16.30;;;4.50;99.90;;;;;;5112135;28;20192;-83
2021/01/08 10:45:57;;;;;;;26.37;17.00;;;4.60;99.90;;;;;;5114174;28;20219;-83
2021/01/08 10:48:24;;;;;;;28.97;16.60;;;4.60;99.90;;;;;;5106617;28;20292;-82
2021/01/08 10:50:51;;;;;;;22.93;16.37;;;4.60;99.90;;;;;;5110098;28;20247;-82
2021/01/08 10:53:18;;;;;;;28.03;16.30;;;4.50;99.90;;;;;;5109186;28;20189;-82
2021/01/08 10:55:46;;;;;;;24.20;16.20;;;4.50;99.90;;;;;;5107943;28;20570;-81
2021/01/08 10:58:15;;;;;;;23.43;15.67;;;4.30;99.90;;;;;;5111803;28;20236;-81
2021/01/08 11:00:41;;;;;;;25.53;16.70;;;4.40;99.90;;;;;;5111105;28;20242;-82
2021/01/08 11:03:08;;;;;;;26.40;16.20;;;4.40;99.90;;;;;;5107202;28;21085;-83
2021/01/08 11:05:38;;;;;;;22.43;16.47;;;4.40;99.90;;;;;;5110230;28;20202;-83
2021/01/08 11:08:06;;;;;;;24.43;16.63;;;4.40;99.90;;;;;;5101222;28;20263;-82
2021/01/08 11:10:32;;;;;;;24.27;16.60;;;4.30;99.90;;;;;;5101423;28;20250;-82
2021/01/08 11:12:59;;;;;;;25.60;16.47;;;4.30;99.90;;;;;;5108525;28;20200;-82
2021/01/08 11:15:25;;;;;;;26.90;16.10;;;4.30;99.90;;;;;;5105630;28;20208;-82
2021/01/08 11:17:51;;;;;;;26.67;16.83;;;4.30;99.90;;;;;;5107928;28;20380;-81
2021/01/08 11:20:18;;;;;;;25.77;17.03;;;4.40;99.90;;;;;;5096676;28;20288;-83
2021/01/08 11:22:45;;;;;;;24.40;16.53;;;4.50;99.90;;;;;;5103885;28;20288;-82
2021/01/08 11:25:13;;;;;;;26.53;17.27;;;4.30;99.90;;;;;;5105834;28;20653;-82
2021/01/08 11:27:39;;;;;;;22.53;16.53;;;4.40;99.90;;;;;;5108902;28;20693;-83
2021/01/08 11:30:07;;;;;;;26.70;16.47;;;4.30;99.90;;;;;;5107007;28;20246;-82
2021/01/08 11:32:33;;;;;;;22.43;16.63;;;4.50;99.90;;;;;;5107427;28;20198;-82
2021/01/08 11:35:01;;;;;;;25.00;17.13;;;4.40;99.90;;;;;;5110548;28;20198;-82
2021/01/08 11:37:30;;;;;;;26.80;17.63;;;4.40;99.90;;;;;;5110713;28;20232;-80
2021/01/08 11:39:57;;;;;;;25.23;16.47;;;4.30;99.90;;;;;;5106765;28;20193;-82
2021/01/08 11:42:23;;;;;;;27.63;17.20;;;4.30;99.90;;;;;;5109890;28;20616;-81
2021/01/08 11:44:50;;;;;;;27.50;17.43;;;4.20;99.90;;;;;;5104273;28;20189;-81
2021/01/08 11:47:16;;;;;;;24.43;16.77;;;4.30;99.90;;;;;;5113178;28;20823;-82
2021/01/08 11:49:42;;;;;;;26.23;17.07;;;4.30;99.90;;;;;;5106272;28;20535;-81
2021/01/08 11:52:09;;;;;;;27.97;18.23;;;4.30;99.90;;;;;;5111709;28;20200;-81
2021/01/08 11:54:35;;;;;;;29.20;18.93;;;4.40;99.90;;;;;;5098704;28;20212;-81
2021/01/08 11:57:05;;;;;;;24.70;18.53;;;4.60;99.90;;;;;;5107447;28;20624;-81
2021/01/08 11:59:31;;;;;;;28.53;18.47;;;4.60;99.90;;;;;;5093554;28;20202;-81
2021/01/08 12:02:03;;;;;;;23.30;16.10;;;4.70;99.90;;;;;;5094950;28;20201;-81
2021/01/08 12:04:29;;;;;;;24.20;15.40;;;4.70;99.90;;;;;;5102317;28;20247;-81
2021/01/08 12:06:58;;;;;;;20.47;15.57;;;4.60;99.90;;;;;;5113439;28;20201;-81
2021/01/08 12:09:25;;;;;;;24.60;14.17;;;4.70;99.90;;;;;;5103343;28;20205;-83
2021/01/08 12:11:56;;;;;;;25.27;16.60;;;4.80;99.90;;;;;;5107555;28;20205;-82
2021/01/08 12:14:24;;;;;;;22.13;15.20;;;4.80;99.90;;;;;;5109466;28;20201;-83
2021/01/08 12:16:50;;;;;;;21.77;15.10;;;4.80;99.90;;;;;;5109542;28;20273;-82
2021/01/08 12:19:17;;;;;;;20.53;13.67;;;4.80;99.90;;;;;;5109266;28;20206;-83
2021/01/08 12:21:45;;;;;;;19.90;14.17;;;4.70;99.90;;;;;;5108500;28;20221;-84
2021/01/08 12:24:11;;;;;;;20.67;14.13;;;4.70;99.90;;;;;;5108086;28;20204;-83
2021/01/08 12:26:37;;;;;;;19.77;14.00;;;4.80;99.90;;;;;;5108071;28;20280;-82
2021/01/08 12:29:04;;;;;;;22.07;15.00;;;4.80;99.90;;;;;;5108957;28;20205;-82
2021/01/08 12:31:31;;;;;;;19.60;13.43;;;4.90;99.90;;;;;;5108388;28;20216;-82
2021/01/08 12:33:57;;;;;;;18.80;13.33;;;5.00;99.90;;;;;;5108670;28;20660;-83
2021/01/08 12:36:24;;;;;;;19.47;12.17;;;5.10;99.90;;;;;;5108200;28;20212;-82
2021/01/08 12:38:50;;;;;;;19.47;12.50;;;5.10;99.90;;;;;;5106680;28;20228;-83
2021/01/08 12:41:17;;;;;;;19.20;13.63;;;5.30;99.90;;;;;;5107159;28;20714;-82
2021/01/08 12:43:45;;;;;;;19.63;13.60;;;5.30;99.90;;;;;;5108595;28;20216;-82
2021/01/08 12:46:12;;;;;;;18.80;12.67;;;5.30;99.90;;;;;;5105663;28;20197;-83